This is the latest recevied weather packets stored in our database for station/object N4OGP-WX. If no packets are shown the sender has not sent any weather packets the latest 10 day(s).
| Time | Temp. | Humidity | Pressure | Rain* | Wind** | Luminosity | Snow |
|---|---|---|---|---|---|---|---|
| 1778248559 | 23.89° C | 42% | 1020.4 hPa | 0 mm | - | - | - |
| 1778248468 | 20.56° C | 85% | 1013.2 hPa | 0 mm | - | - | - |
| 1778248409 | 20.56° C | 85% | 1013.2 hPa | 0 mm | - | - | - |
| 1778248288 | 20.56° C | 85% | 1013.2 hPa | 0 mm | - | - | - |
| 1778248198 | 20.56° C | 85% | 1013.2 hPa | 0 mm | - | - | - |
| 1778248138 | 20.56° C | 86% | 1013.1 hPa | 0 mm | - | - | - |
| 1778248079 | 23.89° C | 42% | 1020.4 hPa | 0 mm | - | - | - |
| 1778247988 | 20.56° C | 86% | 1013 hPa | 0 mm | - | - | - |
| 1778247899 | 20.56° C | 85% | 1013.1 hPa | 0 mm | - | - | - |
| 1778247809 | 23.89° C | 42% | 1020.4 hPa | 0 mm | - | - | - |
| 1778247718 | 20.56° C | 85% | 1013.1 hPa | 0 mm | - | - | - |
| 1778247658 | 20.56° C | 85% | 1013.1 hPa | 0 mm | - | - | - |
| 1778247568 | 20° C | 85% | 1013.2 hPa | 0 mm | - | - | - |
| 1778247508 | 20° C | 86% | 1013.2 hPa | 0 mm | - | - | - |
| 1778247448 | 20° C | 86% | 1013.1 hPa | 0 mm | - | - | - |
| 1778247359 | 23.89° C | 42% | 1020.4 hPa | 0 mm | - | - | - |
| 1778247299 | 20° C | 85% | 1013.2 hPa | 0 mm | - | - | - |
| 1778247208 | 20° C | 86% | 1013.2 hPa | 0 mm | - | - | - |
| 1778247118 | 23.89° C | 42% | 1020.4 hPa | 0 mm | - | - | - |
| 1778247058 | 23.89° C | 42% | 1020.4 hPa | 0 mm | - | - | - |
| 1778246969 | 23.89° C | 42% | 1020.4 hPa | 0 mm | - | - | - |
| 1778246908 | 20° C | 86% | 1013.2 hPa | 0 mm | - | - | - |
| 1778246848 | 20° C | 86% | 1013.2 hPa | 0 mm | - | - | - |
| 1778246788 | 23.89° C | 42% | 1020.4 hPa | 0 mm | - | - | - |
| 1778246729 | 23.89° C | 42% | 1020.4 hPa | 0 mm | - | - | - |
* Rain latest hour (hover to see other rain measurements)
** Current wind speed in m/s (hover to see current wind gust speed)